Time;durP1;ratioP1;P1;durP2;ratioP2;P2;SDS_P1;SDS_P2;PMS_P1;PMS_P2;Temp;Humidity;BMP_temperature;BMP_pressure;BME280_temperature;BME280_humidity;BME280_pressure;Samples;Min_cycle;Max_cycle;Signal;HPM_P1;HPM_P2
2022/09/07 00:01:27;;;;;;;7.00;4.45;;;;;;;21.58;79.45;95523.22;4933038;29;20221;-83
2022/09/07 00:03:55;;;;;;;5.70;3.67;;;;;;;21.61;79.70;95517.47;4936050;29;20876;-82
2022/09/07 00:06:21;;;;;;;6.28;3.88;;;;;;;21.77;78.66;95528.09;4935881;28;20316;-83
2022/09/07 00:08:48;;;;;;;8.00;3.50;;;;;;;21.81;78.73;95531.81;4935488;29;20244;-83
2022/09/07 00:11:18;;;;;;;4.60;3.50;;;;;;;21.77;79.06;95526.28;4935666;29;20205;-84
2022/09/07 00:13:49;;;;;;;6.50;3.70;;;;;;;21.86;77.97;95521.41;4935900;29;20202;-84
2022/09/07 00:16:17;;;;;;;7.20;4.05;;;;;;;21.94;77.46;95524.34;4935610;28;20236;-83
2022/09/07 00:18:44;;;;;;;6.38;3.83;;;;;;;21.97;77.37;95534.34;4935417;29;20205;-83
2022/09/07 00:21:11;;;;;;;6.68;4.00;;;;;;;22.07;77.12;95538.13;4935133;29;20641;-83
2022/09/07 00:23:39;;;;;;;5.18;3.53;;;;;;;21.97;77.69;95534.34;4935664;29;20225;-84
2022/09/07 00:26:08;;;;;;;9.30;3.60;;;;;;;21.89;78.18;95529.56;4935351;28;20260;-83
2022/09/07 00:28:37;;;;;;;7.93;3.78;;;;;;;21.93;78.22;95527.22;4935406;29;20209;-83
2022/09/07 00:31:04;;;;;;;5.80;3.70;;;;;;;21.96;77.81;95521.47;4935310;29;20194;-83
2022/09/07 00:33:31;;;;;;;4.75;3.80;;;;;;;21.88;78.71;95527.19;4936080;29;20583;-83
2022/09/07 00:35:58;;;;;;;7.68;4.00;;;;;;;21.96;79.04;95526.72;4935918;28;20255;-84
2022/09/07 00:38:24;;;;;;;4.70;3.22;;;;;;;21.92;79.27;95531.69;4935994;29;20206;-83
2022/09/07 00:40:51;;;;;;;8.65;4.30;;;;;;;21.81;80.11;95531.81;4935839;29;20240;-84
2022/09/07 00:43:30;;;;;;;9.25;4.22;;;;;;;21.65;81.28;95533.50;4936688;29;20207;-84
2022/09/07 00:45:58;;;;;;;6.72;4.20;;;;;;;21.66;80.68;95529.84;4935591;28;20228;-83
2022/09/07 00:48:30;;;;;;;7.97;4.13;;;;;;;21.70;80.79;95536.97;4936147;29;20645;-83
2022/09/07 00:51:00;;;;;;;7.78;4.40;;;;;;;21.79;81.03;95531.28;4935518;29;20202;-84
2022/09/07 00:53:30;;;;;;;7.88;3.85;;;;;;;21.86;80.42;95527.44;4935543;29;20237;-84
2022/09/07 00:55:59;;;;;;;6.03;3.67;;;;;;;21.90;79.75;95533.75;4934454;28;20284;-84
2022/09/07 00:58:26;;;;;;;8.43;4.10;;;;;;;21.88;80.60;95521.94;4935369;29;20629;-84
2022/09/07 01:00:52;;;;;;;7.80;3.80;;;;;;;21.90;79.73;95532.97;4934870;29;20245;-83
2022/09/07 01:03:24;;;;;;;5.53;4.07;;;;;;;22.01;79.75;95529.41;4936182;29;20731;-84
2022/09/07 01:05:56;;;;;;;6.95;3.72;;;;;;;22.03;79.39;95532.59;4935342;28;20249;-83
2022/09/07 01:08:24;;;;;;;6.47;3.90;;;;;;;22.08;78.89;95532.63;4935729;29;20292;-84
2022/09/07 01:10:50;;;;;;;8.45;3.83;;;;;;;22.12;78.61;95531.09;4934513;29;20284;-83
2022/09/07 01:13:17;;;;;;;6.90;3.95;;;;;;;22.06;78.82;95532.09;4936054;29;20215;-83
2022/09/07 01:15:59;;;;;;;6.07;3.40;;;;;;;22.05;79.15;95536.53;4934751;28;20225;-84
2022/09/07 01:18:36;;;;;;;5.60;3.97;;;;;;;22.01;79.23;95532.84;4931350;29;20253;-83
2022/09/07 01:21:21;;;;;;;6.80;4.20;;;;;;;22.02;79.36;95534.41;4933826;29;20221;-84
2022/09/07 01:24:04;;;;;;;7.78;3.63;;;;;;;22.11;78.64;95531.34;4938786;29;20297;-84
2022/09/07 01:26:57;;;;;;;5.38;3.50;;;;;;;22.08;77.77;95545.75;4938253;28;20225;-84
2022/09/07 01:29:30;;;;;;;6.63;3.55;;;;;;;21.96;77.31;95540.63;4936611;29;20226;-83
2022/09/07 01:32:09;;;;;;;6.10;3.25;;;;;;;21.90;77.58;95539.00;4937311;29;20198;-84
2022/09/07 01:34:37;;;;;;;4.85;3.10;;;;;;;21.90;77.23;95546.06;4937685;28;20260;-83
2022/09/07 01:37:13;;;;;;;5.00;3.13;;;;;;;21.90;77.55;95540.84;4937480;29;20862;-83
2022/09/07 01:39:46;;;;;;;5.28;3.05;;;;;;;21.87;77.61;95539.50;4937986;29;20229;-83
2022/09/07 01:42:15;;;;;;;8.13;3.40;;;;;;;21.86;77.31;95540.53;4931416;29;20289;-83
2022/09/07 01:44:50;;;;;;;7.82;4.00;;;;;;;21.80;77.65;95532.88;4937636;28;20209;-84
2022/09/07 01:47:22;;;;;;;6.75;3.20;;;;;;;21.82;77.41;95536.03;4937011;29;20224;-83
2022/09/07 01:49:54;;;;;;;6.47;3.47;;;;;;;21.83;77.17;95527.91;4938961;29;20225;-83
2022/09/07 01:52:29;;;;;;;4.72;2.90;;;;;;;21.79;77.47;95528.66;4938433;29;20645;-84
2022/09/07 01:55:02;;;;;;;8.48;5.45;;;;;;;21.80;76.87;95531.03;4938046;28;20235;-84
2022/09/07 01:57:34;;;;;;;15.95;13.73;;;;;;;21.77;77.21;95544.63;4939112;29;20201;-84
2022/09/07 02:00:07;;;;;;;9.93;8.98;;;;;;;21.80;77.36;95544.13;4938522;29;20225;-83
2022/09/07 02:02:39;;;;;;;6.80;4.15;;;;;;;21.86;76.71;95543.16;4938939;29;20221;-83
2022/09/07 02:05:09;;;;;;;6.03;3.63;;;;;;;21.87;76.43;95549.97;4938941;28;20253;-83
2022/09/07 02:07:43;;;;;;;6.60;3.13;;;;;;;21.88;76.83;95545.53;4938640;29;20197;-83
2022/09/07 02:10:15;;;;;;;4.28;3.00;;;;;;;21.89;76.21;95541.88;4937431;29;20229;-83
2022/09/07 02:12:47;;;;;;;6.47;3.33;;;;;;;21.89;75.43;95550.53;4937821;29;20737;-84
2022/09/07 02:15:20;;;;;;;6.35;2.95;;;;;;;21.90;74.68;95546.88;4931474;28;20253;-83
2022/09/07 02:17:52;;;;;;;5.55;2.80;;;;;;;21.88;74.99;95545.53;4937345;29;20213;-83
2022/09/07 02:20:22;;;;;;;3.92;2.55;;;;;;;21.90;74.66;95540.84;4931408;29;20229;-83
2022/09/07 02:22:53;;;;;;;5.32;2.42;;;;;;;21.88;74.55;95537.66;4937776;29;20197;-84
2022/09/07 02:25:23;;;;;;;4.63;2.40;;;;;;;21.83;74.02;95527.13;4937186;28;20229;-83
2022/09/07 02:27:54;;;;;;;5.53;2.60;;;;;;;21.86;74.05;95527.44;4937355;29;20202;-83
2022/09/07 02:30:21;;;;;;;4.68;2.70;;;;;;;21.86;73.90;95526.63;4937000;29;20224;-84
2022/09/07 02:32:48;;;;;;;4.15;2.50;;;;;;;21.79;74.29;95526.03;4936636;29;20202;-83
2022/09/07 02:35:15;;;;;;;4.25;2.60;;;;;;;21.85;74.07;95522.44;4930657;28;20236;-83
2022/09/07 02:37:43;;;;;;;5.38;2.60;;;;;;;21.85;73.70;95520.59;4936704;29;20209;-83
2022/09/07 02:40:11;;;;;;;4.22;2.67;;;;;;;21.86;73.17;95516.16;4936448;29;20233;-84
2022/09/07 02:42:38;;;;;;;3.83;2.47;;;;;;;21.90;72.82;95519.88;4933223;29;20585;-84
2022/09/07 02:45:08;;;;;;;4.57;2.60;;;;;;;21.91;73.31;95521.44;4936245;28;20359;-84
2022/09/07 02:47:49;;;;;;;5.65;2.60;;;;;;;21.89;72.60;95518.28;4937053;29;20617;-84
2022/09/07 02:50:44;;;;;;;3.00;2.50;;;;;;;21.76;73.38;95521.28;4930480;29;20570;-84
2022/09/07 02:53:24;;;;;;;5.20;2.75;;;;;;;21.67;73.85;95526.19;4935995;29;20261;-83
2022/09/07 02:56:00;;;;;;;4.88;2.58;;;;;;;21.63;74.42;95525.09;4935958;28;20237;-84
2022/09/07 02:58:35;;;;;;;3.15;2.50;;;;;;;21.49;74.92;95519.47;4936594;29;20243;-84
2022/09/07 03:01:09;;;;;;;5.72;2.88;;;;;;;21.31;75.78;95519.78;4935717;29;20252;-83
2022/09/07 03:03:43;;;;;;;4.25;2.40;;;;;;;21.25;76.35;95518.16;4936491;29;20206;-83
2022/09/07 03:06:16;;;;;;;2.58;2.30;;;;;;;21.34;76.14;95516.69;4935745;28;20224;-83
2022/09/07 03:08:48;;;;;;;4.43;2.63;;;;;;;21.42;75.57;95520.69;4937018;29;20201;-83
2022/09/07 03:11:15;;;;;;;5.43;2.63;;;;;;;21.43;74.76;95512.56;4936256;29;20193;-83
2022/09/07 03:13:42;;;;;;;3.92;2.72;;;;;;;21.36;75.59;95509.34;4937189;29;20614;-84
2022/09/07 03:16:12;;;;;;;6.75;2.50;;;;;;;21.36;75.98;95510.13;4935618;28;20228;-83
2022/09/07 03:18:41;;;;;;;3.05;2.30;;;;;;;21.37;75.41;95511.72;4935090;29;20229;-85
2022/09/07 03:21:07;;;;;;;4.72;2.30;;;;;;;21.50;74.61;95528.13;4933628;29;20272;-85
2022/09/07 03:23:34;;;;;;;4.18;2.45;;;;;;;21.52;74.29;95532.06;4933957;29;20295;-85
2022/09/07 03:26:00;;;;;;;6.05;2.65;;;;;;;21.63;73.97;95527.72;4933136;28;20237;-85
2022/09/07 03:28:27;;;;;;;3.78;2.53;;;;;;;21.69;73.58;95531.97;4933864;29;20260;-83
2022/09/07 03:30:53;;;;;;;5.50;2.45;;;;;;;21.68;72.57;95536.44;4936658;29;20232;-84
2022/09/07 03:33:20;;;;;;;3.00;2.03;;;;;;;21.66;72.77;95522.78;4937278;29;20248;-83
2022/09/07 03:35:58;;;;;;;6.57;2.60;;;;;;;21.59;73.48;95527.41;4936085;28;20222;-84
2022/09/07 03:38:25;;;;;;;2.33;2.13;;;;;;;21.58;74.00;95517.97;4931095;29;20193;-83
2022/09/07 03:40:57;;;;;;;3.25;2.40;;;;;;;21.50;74.25;95531.53;4935152;29;20221;-83
2022/09/07 03:43:24;;;;;;;3.53;2.50;;;;;;;21.49;73.60;95518.69;4930300;29;20298;-84
2022/09/07 03:45:50;;;;;;;3.92;2.70;;;;;;;21.36;74.56;95531.09;4934160;28;20233;-83
2022/09/07 03:48:17;;;;;;;4.50;2.30;;;;;;;21.50;74.05;95528.13;4935694;29;20201;-83
2022/09/07 03:50:43;;;;;;;4.63;2.67;;;;;;;21.52;73.68;95532.06;4935406;29;20289;-84
2022/09/07 03:53:11;;;;;;;7.05;2.20;;;;;;;21.51;74.06;95535.72;4936684;29;20690;-84
2022/09/07 03:55:37;;;;;;;4.95;2.60;;;;;;;21.51;74.06;95527.88;4934423;28;20225;-84
2022/09/07 03:58:04;;;;;;;4.30;2.30;;;;;;;21.43;74.44;95530.91;4934926;29;20205;-84
2022/09/07 04:00:30;;;;;;;3.65;2.33;;;;;;;21.44;74.07;95534.34;4934905;29;20224;-84
2022/09/07 04:02:56;;;;;;;2.72;2.20;;;;;;;21.42;74.03;95539.03;4935679;29;20709;-84
2022/09/07 04:05:23;;;;;;;3.25;2.33;;;;;;;21.44;73.67;95537.75;4928861;28;20221;-84
2022/09/07 04:07:49;;;;;;;4.95;2.40;;;;;;;21.50;73.63;95541.22;4934489;29;20198;-84
2022/09/07 04:10:17;;;;;;;2.95;2.53;;;;;;;21.50;73.47;95538.59;4934157;29;20284;-83
2022/09/07 04:12:43;;;;;;;3.97;2.40;;;;;;;21.50;73.82;95536.78;4934347;29;20657;-84
2022/09/07 04:15:10;;;;;;;6.68;2.38;;;;;;;21.50;73.28;95534.16;4934716;28;20225;-83
2022/09/07 04:17:37;;;;;;;3.63;2.40;;;;;;;21.54;73.59;95537.06;4935119;29;20193;-84
2022/09/07 04:20:04;;;;;;;4.18;2.38;;;;;;;21.53;73.50;95538.13;4934068;29;20292;-84
2022/09/07 04:22:30;;;;;;;5.50;2.55;;;;;;;21.51;73.79;95532.31;4934551;29;20225;-84
2022/09/07 04:24:57;;;;;;;4.50;2.33;;;;;;;21.46;73.71;95532.25;4934679;28;20228;-84
2022/09/07 04:27:25;;;;;;;4.10;2.58;;;;;;;21.45;73.92;95536.72;4936070;29;20687;-84
2022/09/07 04:29:51;;;;;;;4.20;2.28;;;;;;;21.51;73.74;95540.19;4932626;29;20737;-84
2022/09/07 04:32:17;;;;;;;5.57;2.88;;;;;;;21.55;73.33;95549.13;4921874;29;20205;-83
2022/09/07 04:34:44;;;;;;;6.32;2.58;;;;;;;21.54;73.56;95550.97;4928063;28;20582;-82
2022/09/07 04:37:11;;;;;;;5.72;2.55;;;;;;;21.56;73.62;95548.88;4935853;29;20212;-83
2022/09/07 04:39:37;;;;;;;4.60;2.53;;;;;;;21.52;73.75;95549.63;4936172;29;20262;-82
2022/09/07 04:42:04;;;;;;;4.78;2.50;;;;;;;21.55;72.79;95551.75;4922568;29;20281;-83
2022/09/07 04:44:32;;;;;;;5.50;2.78;;;;;;;21.47;73.26;95552.97;4916682;29;20213;-83
2022/09/07 04:46:58;;;;;;;4.10;2.55;;;;;;;21.51;73.16;95540.19;4917215;29;20220;-83
2022/09/07 04:49:25;;;;;;;3.58;2.28;;;;;;;21.47;73.42;95542.50;4918382;29;20225;-83
2022/09/07 04:51:51;;;;;;;4.50;2.53;;;;;;;21.49;73.09;95537.81;4935434;29;20198;-82
2022/09/07 04:54:18;;;;;;;3.67;2.30;;;;;;;21.44;73.33;95531.72;4936633;29;20582;-83
2022/09/07 04:56:44;;;;;;;6.30;2.72;;;;;;;21.45;73.44;95536.72;4951928;28;20291;-84
2022/09/07 04:59:10;;;;;;;12.43;4.25;;;;;;;21.45;73.62;95546.41;4939990;29;20220;-84
2022/09/07 05:01:38;;;;;;;7.00;2.83;;;;;;;21.42;73.83;95549.50;4938236;29;20221;-84
2022/09/07 05:04:05;;;;;;;5.80;2.83;;;;;;;21.46;73.57;95555.84;4937624;29;20205;-85
2022/09/07 05:06:32;;;;;;;8.70;3.22;;;;;;;21.47;73.29;95550.34;4936649;28;20237;-85
2022/09/07 05:09:01;;;;;;;9.25;3.38;;;;;;;21.43;73.83;95551.09;4938207;29;20232;-84
2022/09/07 05:11:29;;;;;;;9.13;3.60;;;;;;;21.41;74.00;95551.31;4937449;29;20295;-82
2022/09/07 05:13:55;;;;;;;5.40;2.70;;;;;;;21.45;72.64;95543.78;4939062;29;20208;-82
2022/09/07 05:16:23;;;;;;;21.75;17.00;;;;;;;21.48;72.49;95551.16;4946486;28;20225;-84
2022/09/07 05:18:55;;;;;;;9.02;6.82;;;;;;;21.49;72.16;95558.75;4938592;29;20209;-84
2022/09/07 05:21:25;;;;;;;3.85;3.00;;;;;;;21.50;71.69;95549.88;4938419;29;20293;-83
2022/09/07 05:23:54;;;;;;;14.85;12.57;;;;;;;21.52;72.32;95552.25;4936278;29;20202;-82
2022/09/07 05:26:22;;;;;;;6.68;5.93;;;;;;;21.54;72.18;95564.06;4938720;28;20225;-84
2022/09/07 05:28:49;;;;;;;5.82;3.80;;;;;;;21.61;71.19;95574.34;4939783;29;20205;-84
2022/09/07 05:31:18;;;;;;;5.75;3.05;;;;;;;21.65;70.42;95570.19;4937768;29;20208;-83
2022/09/07 05:33:46;;;;;;;5.78;2.92;;;;;;;21.67;70.57;95566.28;4939465;29;20202;-84
2022/09/07 05:36:14;;;;;;;6.13;2.85;;;;;;;21.74;70.09;95581.06;4937783;28;20225;-83
2022/09/07 05:38:40;;;;;;;6.78;3.00;;;;;;;21.75;70.49;95586.00;4938193;29;20197;-83
2022/09/07 05:41:11;;;;;;;5.00;2.88;;;;;;;21.78;71.05;95582.13;4937444;29;20204;-84
2022/09/07 05:43:38;;;;;;;5.32;2.97;;;;;;;21.77;71.16;95591.81;4937793;29;20217;-84
2022/09/07 05:46:04;;;;;;;8.32;3.22;;;;;;;21.73;71.82;95589.94;4937905;28;20225;-84
2022/09/07 05:48:31;;;;;;;4.93;3.13;;;;;;;21.73;72.13;95587.31;4938643;29;20704;-83
2022/09/07 05:50:57;;;;;;;3.97;2.60;;;;;;;21.76;71.78;95598.09;4938391;29;20232;-84
2022/09/07 05:53:25;;;;;;;7.90;3.20;;;;;;;21.75;71.82;95604.38;4938659;29;20225;-82
2022/09/07 05:55:52;;;;;;;7.50;3.03;;;;;;;21.71;72.27;95604.09;4936606;28;20233;-83
2022/09/07 05:58:18;;;;;;;5.40;3.30;;;;;;;21.63;73.64;95606.34;4937149;29;20212;-82
2022/09/07 06:00:45;;;;;;;6.57;2.67;;;;;;;21.70;73.22;95604.34;4938000;29;20228;-84
2022/09/07 06:03:11;;;;;;;5.65;2.72;;;;;;;21.66;73.59;95611.09;4938363;29;20213;-83
2022/09/07 06:05:38;;;;;;;8.23;2.65;;;;;;;21.69;73.28;95616.66;4937368;28;20225;-83
2022/09/07 06:08:06;;;;;;;5.03;3.10;;;;;;;21.65;74.72;95620.00;4936968;29;20714;-84
2022/09/07 06:10:40;;;;;;;5.50;3.10;;;;;;;21.64;75.58;95627.06;4938970;29;20827;-84
2022/09/07 06:13:08;;;;;;;5.55;2.80;;;;;;;21.65;75.13;95633.88;4939266;29;20200;-85
2022/09/07 06:15:37;;;;;;;5.43;2.80;;;;;;;21.72;74.77;95652.06;4939169;28;20231;-84
2022/09/07 06:18:03;;;;;;;7.70;2.90;;;;;;;21.69;74.97;95639.44;4940451;29;20200;-84
2022/09/07 06:20:30;;;;;;;3.10;2.80;;;;;;;21.61;76.43;95632.00;4938864;29;20748;-82
2022/09/07 06:22:56;;;;;;;6.07;2.67;;;;;;;21.56;76.29;95637.97;4938844;28;20222;-82
2022/09/07 06:25:23;;;;;;;4.15;3.10;;;;;;;21.46;77.77;95637.84;4936046;28;20237;-82
2022/09/07 06:27:52;;;;;;;4.53;2.80;;;;;;;21.45;77.66;95641.50;4939505;29;20636;-82
2022/09/07 06:30:19;;;;;;;7.03;3.72;;;;;;;21.47;78.49;95649.91;4934242;29;20320;-82
2022/09/07 06:32:45;;;;;;;6.80;3.40;;;;;;;21.63;77.61;95659.53;4935438;29;20193;-81
2022/09/07 06:35:13;;;;;;;5.93;2.80;;;;;;;21.77;76.77;95654.72;4935694;28;20234;-82
2022/09/07 06:37:39;;;;;;;6.53;3.30;;;;;;;21.72;76.73;95644.19;4935491;29;20253;-82
2022/09/07 06:40:07;;;;;;;6.45;3.03;;;;;;;21.87;75.53;95646.97;4936745;29;20217;-82
2022/09/07 06:42:34;;;;;;;4.07;2.83;;;;;;;22.14;74.25;95643.59;4936694;29;20240;-82
2022/09/07 06:45:02;;;;;;;6.50;2.70;;;;;;;22.22;73.73;95646.59;4936746;28;20229;-82
2022/09/07 06:47:28;;;;;;;4.75;3.08;;;;;;;22.23;72.78;95645.53;4931354;29;20291;-83
2022/09/07 06:49:55;;;;;;;3.80;2.53;;;;;;;22.28;72.31;95650.06;4936860;29;20268;-83
2022/09/07 06:52:21;;;;;;;4.50;2.58;;;;;;;22.36;71.53;95653.00;4935490;29;20201;-83
2022/09/07 06:54:48;;;;;;;4.20;2.53;;;;;;;22.54;70.97;95653.69;4936567;28;20201;-84
2022/09/07 06:57:14;;;;;;;5.50;2.78;;;;;;;22.73;70.11;95647.81;4936694;29;20202;-83
2022/09/07 06:59:41;;;;;;;5.13;2.40;;;;;;;22.93;69.26;95641.16;4937129;29;20648;-83
2022/09/07 07:02:11;;;;;;;5.95;2.47;;;;;;;23.16;68.36;95646.03;4935697;29;20605;-83
2022/09/07 07:04:38;;;;;;;5.65;2.70;;;;;;;23.24;67.02;95650.81;4936874;28;20601;-83
2022/09/07 07:07:04;;;;;;;4.53;2.35;;;;;;;23.17;66.69;95650.25;4935604;29;20198;-82
2022/09/07 07:09:31;;;;;;;4.90;2.42;;;;;;;23.03;65.36;95646.47;4929725;29;20224;-83
2022/09/07 07:11:57;;;;;;;3.83;1.92;;;;;;;22.93;65.37;95647.19;4935059;29;20201;-82
2022/09/07 07:14:23;;;;;;;3.95;2.20;;;;;;;22.91;64.78;95644.03;4935027;29;20209;-84
2022/09/07 07:16:50;;;;;;;4.93;2.13;;;;;;;23.15;63.41;95651.53;4940188;28;20708;-83
2022/09/07 07:19:18;;;;;;;5.38;2.28;;;;;;;23.30;63.07;95649.78;4934574;29;20236;-83
2022/09/07 07:21:44;;;;;;;4.60;1.85;;;;;;;23.49;62.92;95650.16;4936120;29;20201;-85
2022/09/07 07:24:10;;;;;;;3.72;2.00;;;;;;;23.74;62.63;95657.38;4938043;29;20228;-84
2022/09/07 07:26:39;;;;;;;2.72;1.92;;;;;;;23.99;61.69;95654.06;4936800;28;20285;-84
2022/09/07 07:29:05;;;;;;;2.53;2.03;;;;;;;24.15;60.25;95653.03;4935697;29;20314;-84
2022/09/07 07:31:33;;;;;;;2.28;2.00;;;;;;;24.34;59.97;95656.00;4936947;29;20212;-83
2022/09/07 07:33:59;;;;;;;4.15;1.88;;;;;;;24.37;59.14;95672.06;4935448;29;20292;-83
2022/09/07 07:36:27;;;;;;;4.18;1.90;;;;;;;24.15;58.91;95671.47;4935095;28;20225;-83
2022/09/07 07:38:55;;;;;;;3.60;2.10;;;;;;;24.03;59.96;95671.72;4935082;29;20260;-82
2022/09/07 07:41:24;;;;;;;4.22;2.15;;;;;;;23.93;60.33;95668.25;4935085;29;20209;-82
2022/09/07 07:43:55;;;;;;;5.18;1.80;;;;;;;23.78;60.04;95671.59;4936272;29;20233;-83
2022/09/07 07:46:22;;;;;;;2.10;1.70;;;;;;;23.76;60.85;95669.25;4934992;28;20288;-84
2022/09/07 07:48:49;;;;;;;2.42;1.63;;;;;;;23.71;61.24;95663.94;4935949;29;20201;-83
2022/09/07 07:51:15;;;;;;;3.55;1.90;;;;;;;23.74;59.99;95668.69;4953888;29;20204;-82
2022/09/07 07:53:43;;;;;;;6.03;2.00;;;;;;;23.89;60.16;95660.06;4954884;29;20257;-84
2022/09/07 07:56:11;;;;;;;4.95;1.90;;;;;;;23.96;59.67;95668.53;4947997;28;20237;-84
2022/09/07 07:58:38;;;;;;;3.35;1.73;;;;;;;23.97;59.94;95669.31;4935049;29;20268;-82
2022/09/07 08:01:06;;;;;;;2.60;1.83;;;;;;;24.01;60.35;95662.50;4934529;29;20253;-83
2022/09/07 08:03:34;;;;;;;5.55;2.10;;;;;;;24.20;59.85;95658.31;4935458;29;20217;-82
2022/09/07 08:06:06;;;;;;;3.78;2.00;;;;;;;24.40;58.74;95650.50;4934455;28;20236;-83
2022/09/07 08:08:34;;;;;;;4.43;1.80;;;;;;;24.44;58.02;95659.44;4935256;29;20206;-82
2022/09/07 08:11:03;;;;;;;4.25;1.80;;;;;;;24.33;57.95;95642.06;4921805;29;20722;-82
2022/09/07 08:13:31;;;;;;;4.05;1.98;;;;;;;24.36;58.42;95648.66;4918455;29;20213;-83
2022/09/07 08:15:58;;;;;;;2.47;2.03;;;;;;;24.54;57.70;95658.66;4929518;29;20241;-82
2022/09/07 08:18:24;;;;;;;3.97;2.10;;;;;;;24.67;56.65;95652.06;4943449;29;20206;-83
2022/09/07 08:20:50;;;;;;;4.18;2.03;;;;;;;24.96;56.52;95660.28;4933053;29;20228;-82
2022/09/07 08:23:19;;;;;;;3.35;2.20;;;;;;;25.22;55.36;95648.63;4935113;29;20236;-82
2022/09/07 08:25:50;;;;;;;3.30;2.00;;;;;;;25.38;55.29;95652.81;4934851;28;20308;-84
2022/09/07 08:28:18;;;;;;;3.67;1.85;;;;;;;25.58;54.42;95659.09;4934494;29;20265;-84
2022/09/07 08:30:44;;;;;;;3.53;1.90;;;;;;;25.61;54.03;95651.41;4932907;29;20244;-83
2022/09/07 08:33:11;;;;;;;2.17;1.75;;;;;;;25.61;54.65;95653.25;4934819;29;20198;-84
2022/09/07 08:35:37;;;;;;;5.85;2.38;;;;;;;25.41;54.61;95649.63;4934124;28;20257;-84
2022/09/07 08:38:04;;;;;;;7.28;1.95;;;;;;;25.27;55.05;95642.56;4933632;29;20209;-82
2022/09/07 08:40:35;;;;;;;2.97;2.00;;;;;;;25.06;54.39;95642.59;4932647;29;20225;-83
2022/09/07 08:43:12;;;;;;;3.72;1.92;;;;;;;25.09;54.37;95638.66;4933716;29;20221;-83
2022/09/07 08:45:45;;;;;;;2.95;2.00;;;;;;;25.07;55.24;95632.84;4933844;28;20220;-82
2022/09/07 08:48:17;;;;;;;3.92;1.90;;;;;;;25.17;55.16;95642.59;4934190;29;20197;-82
2022/09/07 08:50:51;;;;;;;4.95;2.10;;;;;;;25.35;54.56;95634.91;4933688;29;20285;-83
2022/09/07 08:53:19;;;;;;;4.55;1.90;;;;;;;25.61;53.84;95638.22;4933860;29;20810;-83
2022/09/07 08:55:51;;;;;;;5.00;1.90;;;;;;;26.04;52.14;95639.38;4934032;28;20241;-83
2022/09/07 08:58:22;;;;;;;5.88;1.80;;;;;;;26.19;52.35;95635.84;4935708;29;20197;-83
2022/09/07 09:00:50;;;;;;;4.63;1.85;;;;;;;26.46;51.53;95638.88;4935684;29;20221;-83
2022/09/07 09:03:21;;;;;;;4.07;2.10;;;;;;;27.00;50.57;95624.72;4937609;29;20209;-83
2022/09/07 09:06:01;;;;;;;2.58;1.75;;;;;;;26.98;49.82;95626.84;4937431;28;20251;-83
2022/09/07 09:08:39;;;;;;;3.97;1.95;;;;;;;27.30;49.81;95628.13;4937462;29;20772;-83
2022/09/07 09:11:10;;;;;;;2.35;1.80;;;;;;;27.58;48.65;95627.31;4937686;29;20197;-83
2022/09/07 09:13:51;;;;;;;3.78;2.00;;;;;;;27.84;48.80;95625.94;4937260;29;20190;-83
2022/09/07 09:16:29;;;;;;;4.75;2.22;;;;;;;28.12;48.89;95626.88;4937570;28;20302;-83
2022/09/07 09:19:12;;;;;;;5.28;1.98;;;;;;;28.38;46.56;95629.19;4938406;29;20217;-83
2022/09/07 09:21:40;;;;;;;1.98;1.75;;;;;;;28.65;47.52;95620.56;4931685;29;20198;-83
2022/09/07 09:24:14;;;;;;;2.78;1.67;;;;;;;28.90;46.37;95622.81;4939437;29;20272;-83
2022/09/07 09:26:45;;;;;;;7.60;1.83;;;;;;;28.75;44.67;95612.44;4932342;29;20225;-84
2022/09/07 09:29:13;;;;;;;4.30;1.70;;;;;;;28.93;44.70;95608.19;4942168;29;20233;-83
2022/09/07 09:31:41;;;;;;;2.33;1.73;;;;;;;28.92;44.29;95607.41;4937851;29;20204;-83
2022/09/07 09:34:10;;;;;;;2.65;1.70;;;;;;;29.03;44.43;95603.50;4939233;29;20249;-84
2022/09/07 09:36:42;;;;;;;2.60;1.70;;;;;;;29.07;44.52;95609.78;4937999;28;20236;-84
2022/09/07 09:39:25;;;;;;;2.10;1.48;;;;;;;29.22;43.58;95603.44;4945604;29;20222;-83
2022/09/07 09:41:52;;;;;;;2.95;1.48;;;;;;;29.06;42.75;95604.75;4937913;29;20205;-83
2022/09/07 09:44:19;;;;;;;3.35;1.50;;;;;;;28.97;42.68;95598.56;4946345;29;20221;-84
2022/09/07 09:46:49;;;;;;;2.60;1.42;;;;;;;28.85;42.17;95599.06;4946533;28;20225;-84
2022/09/07 09:49:20;;;;;;;3.08;1.35;;;;;;;28.71;41.93;95593.69;4948805;29;20233;-83
2022/09/07 09:51:51;;;;;;;2.45;1.40;;;;;;;28.81;42.80;95601.50;4948177;29;20815;-83
2022/09/07 09:54:25;;;;;;;1.95;1.30;;;;;;;28.87;43.59;95599.53;4944671;29;20201;-84
2022/09/07 09:56:52;;;;;;;4.25;1.52;;;;;;;28.89;43.94;95605.31;4942119;28;20221;-84
2022/09/07 09:59:22;;;;;;;3.17;1.40;;;;;;;28.91;43.35;95597.88;4942763;29;20229;-84
2022/09/07 10:01:51;;;;;;;3.22;1.50;;;;;;;28.91;43.85;95595.22;4942209;29;20189;-85
2022/09/07 10:04:29;;;;;;;2.55;1.65;;;;;;;28.75;44.51;95593.88;4940130;29;20225;-85
2022/09/07 10:06:57;;;;;;;2.03;1.20;;;;;;;28.43;44.87;95600.78;4942043;29;20229;-85
2022/09/07 10:09:26;;;;;;;2.03;1.48;;;;;;;28.11;45.43;95603.31;4941466;29;20745;-85
2022/09/07 10:11:57;;;;;;;3.05;1.48;;;;;;;27.88;45.44;95602.34;4935695;29;20231;-84
2022/09/07 10:14:28;;;;;;;1.77;1.30;;;;;;;27.82;45.96;95601.63;4941829;29;20222;-85
2022/09/07 10:16:57;;;;;;;1.80;1.35;;;;;;;27.95;46.22;95594.03;4942623;29;20244;-85
2022/09/07 10:19:32;;;;;;;2.33;1.30;;;;;;;28.04;45.68;95577.22;4941353;29;20253;-85
2022/09/07 10:22:00;;;;;;;2.95;1.40;;;;;;;27.75;46.49;95595.88;4942259;29;20193;-85
2022/09/07 10:24:31;;;;;;;3.75;1.45;;;;;;;27.49;46.32;95594.59;4940859;29;20213;-84
2022/09/07 10:26:58;;;;;;;3.78;1.52;;;;;;;27.20;46.80;95609.72;4939143;29;20217;-84
2022/09/07 10:29:29;;;;;;;1.92;1.33;;;;;;;27.14;47.64;95601.06;4941258;29;20229;-85
2022/09/07 10:32:14;;;;;;;5.18;1.60;;;;;;;27.17;47.60;95597.84;4940639;29;20343;-84
2022/09/07 10:34:52;;;;;;;2.92;1.60;;;;;;;27.12;47.26;95592.63;4940543;28;20200;-85
2022/09/07 10:37:32;;;;;;;2.50;1.30;;;;;;;27.21;47.84;95603.38;4941957;29;20206;-84
2022/09/07 10:40:09;;;;;;;4.80;1.85;;;;;;;27.28;47.85;95606.47;4941361;29;20284;-85
2022/09/07 10:42:40;;;;;;;1.92;1.52;;;;;;;27.22;47.93;95599.66;4939999;29;20198;-84
2022/09/07 10:45:18;;;;;;;3.58;1.70;;;;;;;27.07;48.39;95596.13;4940535;28;20233;-84
2022/09/07 10:47:56;;;;;;;3.38;1.40;;;;;;;26.96;48.30;95586.69;4934500;29;20201;-84
2022/09/07 10:50:30;;;;;;;4.03;1.45;;;;;;;26.63;48.79;95576.94;4939293;29;20261;-84
2022/09/07 10:53:08;;;;;;;3.00;1.48;;;;;;;26.59;49.31;95574.06;4941212;29;20224;-84
2022/09/07 10:55:39;;;;;;;3.25;1.65;;;;;;;26.66;49.12;95565.84;4937388;28;20236;-84
2022/09/07 10:58:20;;;;;;;2.65;1.60;;;;;;;26.81;49.03;95560.41;4940647;29;20208;-84
2022/09/07 11:01:03;;;;;;;2.97;1.55;;;;;;;27.01;49.23;95562.88;4933342;29;20225;-84
2022/09/07 11:03:51;;;;;;;2.40;1.30;;;;;;;27.24;48.65;95563.16;4939757;29;20221;-85
2022/09/07 11:06:20;;;;;;;4.72;1.60;;;;;;;27.50;48.83;95551.22;4939587;28;20229;-84
2022/09/07 11:09:02;;;;;;;1.85;1.30;;;;;;;27.62;48.14;95542.88;4934376;29;20206;-84
2022/09/07 11:11:32;;;;;;;2.83;1.80;;;;;;;27.84;48.57;95549.19;4939994;29;20585;-85
2022/09/07 11:14:04;;;;;;;5.63;1.58;;;;;;;27.94;48.15;95540.31;4940316;29;20688;-84
2022/09/07 11:16:35;;;;;;;3.25;1.60;;;;;;;28.13;48.41;95535.78;4939694;28;20248;-84
2022/09/07 11:19:07;;;;;;;2.78;1.55;;;;;;;28.08;47.02;95540.38;4940275;29;20261;-85
2022/09/07 11:21:38;;;;;;;2.53;1.58;;;;;;;28.04;47.20;95532.22;4939006;29;20276;-85
2022/09/07 11:24:13;;;;;;;3.60;1.70;;;;;;;27.99;47.27;95534.16;4940197;29;20221;-85
2022/09/07 11:26:45;;;;;;;3.78;1.98;;;;;;;28.07;47.53;95525.56;4938523;28;20284;-84
2022/09/07 11:29:18;;;;;;;2.60;1.73;;;;;;;28.08;46.94;95511.25;4940488;29;20218;-84
2022/09/07 11:31:47;;;;;;;2.53;1.60;;;;;;;28.02;46.90;95518.47;4938658;29;20198;-85
2022/09/07 11:34:22;;;;;;;3.42;1.48;;;;;;;27.85;46.87;95524.28;4940956;29;20205;-84
2022/09/07 11:36:53;;;;;;;3.42;1.70;;;;;;;27.98;47.15;95516.69;4935075;29;20704;-84
2022/09/07 11:39:26;;;;;;;3.72;1.70;;;;;;;27.95;46.12;95506.69;4939882;29;20221;-84
2022/09/07 11:42:00;;;;;;;5.68;1.65;;;;;;;27.97;46.94;95504.53;4933858;29;20638;-84
2022/09/07 11:44:35;;;;;;;4.03;1.85;;;;;;;28.06;47.78;95511.53;4940136;29;20209;-84
2022/09/07 11:47:09;;;;;;;1.90;1.70;;;;;;;28.03;47.40;95508.69;4940021;29;20279;-84